Terminal Aerodrome Forecast
Issued by NWS Burlington, VT

Home | Current Version | Previous Version | Text Only | Print | Product List | Glossary On
Versions: 1 2 3 4 5 6 7 8 9 10 11 12 13 14 15 16 17 18 19 20 21 22 23
000
FTUS41 KBTV 130313 AAC
TAFBTV
TAF AMD
KBTV 130313Z 1303/1324 34005KT 4SM -SN BR SCT008 BKN025
     FM130500 31007G16KT 2SM -SN BR SCT008 OVC012
      TEMPO 1306/1309 3/4SM -SN BR BKN008
     FM131200 30012G20KT 3SM -SHSN BR OVC020
     FM131600 29015G24KT P6SM VCSH OVC025=

USA.gov is the U.S. government's official web portal to all federal, state and local government web resources and services.